KTPF/TPF METAR and TAF weather

Enter ICAO airport designator
Station Type Date Time Source
KTPF METAR 2021/03/05 19:35 UTC NOAA

KTPF 051935Z AUTO 00000KT 10SM BKN090 BKN120 25/05 A2997 RMK AO2


Station Type Date Time Source
KTPF Decoded METAR 2021/03/05 19:35 UTC NOAA

Tampa, Peter O Knight Airport, FL, United States (KTPF) 27-54-56N 082-26-57W
Mar 05, 2021 - 02:35 PM EST / 2021.03.05 1935 UTC
Wind: Calm:0
Visibility: 10 mile(s):0
Sky conditions: mostly cloudy
Temperature: 77 F (25 C)
Dew Point: 41 F (5 C)
Relative Humidity: 27%
Pressure (altimeter): 29.97 in. Hg (1014 hPa)
ob: KTPF 051935Z AUTO 00000KT 10SM BKN090 BKN120 25/05 A2997 RMK AO2
cycle: 19

Station Type Date Time Source
KTPF TAF UTC NOAA

Error!

Example: see airport list